createdAt,value
2023-03-20T00:00:29.211Z,47.98
2023-03-20T00:03:21.231Z,48.12
2023-03-20T00:05:51.824Z,48.20
2023-03-20T00:08:23.268Z,48.08
2023-03-20T00:10:52.348Z,48.03
2023-03-20T00:13:31.253Z,48.28
2023-03-20T00:16:02.098Z,48.43
2023-03-20T00:18:31.389Z,48.46
2023-03-20T00:21:01.209Z,48.50
2023-03-20T00:23:33.981Z,48.41
2023-03-20T00:26:05.185Z,48.85
2023-03-20T00:28:40.158Z,48.61
2023-03-20T00:31:29.683Z,48.61
2023-03-20T00:34:05.768Z,48.72
2023-03-20T00:36:34.974Z,48.91
2023-03-20T00:39:05.299Z,49.06
2023-03-20T00:41:42.035Z,48.91
2023-03-20T00:44:25.262Z,49.13
2023-03-20T00:46:58.700Z,49.05
2023-03-20T00:49:32.792Z,49.34
2023-03-20T00:52:04.316Z,49.20
2023-03-20T00:54:36.972Z,49.12
2023-03-20T00:57:21.206Z,49.25
2023-03-20T01:00:01.854Z,49.23
2023-03-20T01:02:31.684Z,49.34
2023-03-20T01:05:04.094Z,49.37
2023-03-20T01:07:34.319Z,49.51
2023-03-20T01:10:07.699Z,49.65
2023-03-20T01:12:37.161Z,49.73
2023-03-20T01:15:37.257Z,49.74
2023-03-20T01:18:06.565Z,49.57
2023-03-20T01:20:36.321Z,49.70
2023-03-20T01:23:07.243Z,49.84
2023-03-20T01:25:37.475Z,49.77
2023-03-20T01:28:22.081Z,49.85
2023-03-20T01:30:53.100Z,50.08
2023-03-20T01:33:26.241Z,49.84
2023-03-20T01:35:57.832Z,50.17
2023-03-20T01:38:28.670Z,50.20
2023-03-20T01:41:04.553Z,50.18
2023-03-20T01:43:36.329Z,50.13
2023-03-20T01:46:23.315Z,50.27
2023-03-20T01:48:54.010Z,50.29
2023-03-20T01:51:33.199Z,50.37
2023-03-20T01:54:08.478Z,50.26
2023-03-20T01:56:45.042Z,50.55
2023-03-20T01:59:22.837Z,50.53
2023-03-20T02:01:54.284Z,50.70
2023-03-20T02:04:34.216Z,50.66
2023-03-20T02:07:13.952Z,50.72
2023-03-20T02:09:51.623Z,50.76
2023-03-20T02:12:26.909Z,50.90
2023-03-20T02:14:57.176Z,50.92
2023-03-20T02:17:45.398Z,50.89
2023-03-20T02:20:38.723Z,50.91
2023-03-20T02:23:25.230Z,50.97
2023-03-20T02:26:33.147Z,51.17
2023-03-20T02:29:42.904Z,51.34
2023-03-20T02:32:36.678Z,51.42
2023-03-20T02:35:39.299Z,51.58
2023-03-20T02:38:24.640Z,51.58
2023-03-20T02:41:09.639Z,51.61
2023-03-20T02:44:05.988Z,51.74
2023-03-20T02:46:37.852Z,51.72
2023-03-20T02:49:37.964Z,51.58
2023-03-20T02:52:09.843Z,51.81
2023-03-20T02:55:01.682Z,51.93
2023-03-20T02:57:36.303Z,51.87
2023-03-20T03:00:35.942Z,52.16
2023-03-20T03:03:41.694Z,52.19
2023-03-20T03:06:10.876Z,52.21
2023-03-20T03:08:47.691Z,52.24
2023-03-20T03:11:17.994Z,52.39
2023-03-20T03:13:53.396Z,52.29
2023-03-20T03:16:29.530Z,52.58
2023-03-20T03:19:10.226Z,52.27
2023-03-20T03:21:41.161Z,52.37
2023-03-20T03:24:39.225Z,52.28
2023-03-20T03:27:38.362Z,52.39
2023-03-20T03:30:19.006Z,52.68
2023-03-20T03:33:22.275Z,52.62
2023-03-20T03:35:58.939Z,52.72
2023-03-20T03:38:40.778Z,52.53
2023-03-20T03:41:22.551Z,52.78
2023-03-20T03:43:54.336Z,52.63
2023-03-20T03:46:34.538Z,52.71
2023-03-20T03:49:06.194Z,52.69
2023-03-20T03:51:39.310Z,52.77
2023-03-20T03:54:22.769Z,52.96
2023-03-20T03:57:27.834Z,53.00
2023-03-20T04:00:01.210Z,52.96
2023-03-20T04:02:33.096Z,53.05
2023-03-20T04:05:05.146Z,52.98
2023-03-20T04:07:34.077Z,53.12
2023-03-20T04:10:04.695Z,53.12
2023-03-20T04:12:45.709Z,53.27
2023-03-20T04:15:16.570Z,53.07
2023-03-20T04:17:47.183Z,53.03
2023-03-20T04:20:17.888Z,52.95
2023-03-20T04:22:50.987Z,53.22
2023-03-20T04:25:26.937Z,53.50
2023-03-20T04:27:57.398Z,53.31
2023-03-20T04:30:34.908Z,53.49
2023-03-20T04:33:23.973Z,53.66
2023-03-20T04:36:13.583Z,53.42
2023-03-20T04:38:44.174Z,53.46
2023-03-20T04:41:14.081Z,53.54
2023-03-20T04:43:43.531Z,53.37
2023-03-20T04:46:14.140Z,53.46
2023-03-20T04:48:44.305Z,53.74
2023-03-20T04:51:13.490Z,53.79
2023-03-20T04:53:52.891Z,53.76
2023-03-20T04:56:22.989Z,53.78
2023-03-20T04:58:54.335Z,53.89
2023-03-20T05:01:25.225Z,54.04
2023-03-20T05:04:01.287Z,54.05
2023-03-20T05:06:34.515Z,54.06
2023-03-20T05:09:04.659Z,54.13
2023-03-20T05:11:37.097Z,54.22
2023-03-20T05:14:19.979Z,54.22
2023-03-20T05:17:08.889Z,54.32
2023-03-20T05:19:57.967Z,54.08
2023-03-20T05:22:55.970Z,54.24
2023-03-20T05:25:53.778Z,54.42
2023-03-20T05:28:29.275Z,54.48
2023-03-20T05:31:35.566Z,54.61
2023-03-20T05:34:49.290Z,54.85
2023-03-20T05:37:36.197Z,54.74
2023-03-20T05:40:16.857Z,54.57
2023-03-20T05:43:13.697Z,54.79
2023-03-20T05:46:14.618Z,54.72
2023-03-20T05:49:03.330Z,54.61
2023-03-20T05:51:54.054Z,54.82
2023-03-20T05:54:33.871Z,54.74
2023-03-20T05:57:44.193Z,55.09
2023-03-20T06:00:28.858Z,54.99
2023-03-20T06:03:17.765Z,55.43
2023-03-20T06:06:02.147Z,55.30
2023-03-20T06:08:31.404Z,55.22
2023-03-20T06:11:01.312Z,55.23
2023-03-20T06:13:31.128Z,55.23
2023-03-20T06:16:14.292Z,55.32
2023-03-20T06:18:43.242Z,55.61
2023-03-20T06:21:13.513Z,55.32
2023-03-20T06:23:43.506Z,55.13
2023-03-20T06:26:13.465Z,55.13
2023-03-20T06:28:58.482Z,55.03
2023-03-20T06:31:32.015Z,55.12
2023-03-20T06:34:04.877Z,55.00
2023-03-20T06:36:40.404Z,55.10
2023-03-20T06:39:13.549Z,54.92
2023-03-20T06:41:44.700Z,54.87
2023-03-20T06:44:14.390Z,54.71
2023-03-20T06:47:06.540Z,54.31
2023-03-20T06:49:37.503Z,54.44
2023-03-20T06:52:08.240Z,54.41
2023-03-20T06:54:38.016Z,54.52
2023-03-20T06:57:08.209Z,54.48
2023-03-20T06:59:41.055Z,54.43
2023-03-20T07:02:17.418Z,54.52
2023-03-20T07:04:47.713Z,54.35
2023-03-20T07:07:20.961Z,54.29
2023-03-20T07:09:50.907Z,53.78
2023-03-20T07:12:22.144Z,53.55
2023-03-20T07:14:51.972Z,53.52
2023-03-20T07:17:23.591Z,53.11
2023-03-20T07:19:53.660Z,52.85
2023-03-20T07:22:27.150Z,52.91
2023-03-20T07:25:13.995Z,53.07
2023-03-20T07:27:46.997Z,53.21
2023-03-20T07:30:18.421Z,53.16
2023-03-20T07:32:50.029Z,53.24
2023-03-20T07:35:20.670Z,53.30
2023-03-20T07:37:52.094Z,53.59
2023-03-20T07:40:21.961Z,53.85
2023-03-20T07:42:59.498Z,53.72
2023-03-20T07:46:06.102Z,53.45
2023-03-20T07:48:37.118Z,53.67
2023-03-20T07:51:08.117Z,53.34
2023-03-20T07:53:38.154Z,52.91
2023-03-20T07:56:09.509Z,52.41
2023-03-20T07:58:39.611Z,51.70
2023-03-20T08:01:11.355Z,51.80
2023-03-20T08:03:41.311Z,52.29
2023-03-20T08:06:11.876Z,52.55
2023-03-20T08:08:42.529Z,52.79
2023-03-20T08:11:13.694Z,52.84
2023-03-20T08:13:45.782Z,53.36
2023-03-20T08:16:14.963Z,53.41
2023-03-20T08:18:45.836Z,53.34
2023-03-20T08:21:17.292Z,53.49
2023-03-20T08:23:47.269Z,53.51
2023-03-20T08:26:19.425Z,53.84
2023-03-20T08:28:50.435Z,53.55
2023-03-20T08:31:23.951Z,53.73
2023-03-20T08:33:56.165Z,53.81
2023-03-20T08:36:25.868Z,53.77
2023-03-20T08:38:57.613Z,54.08
2023-03-20T08:41:28.612Z,53.99
2023-03-20T08:43:57.531Z,54.02
2023-03-20T08:46:28.703Z,54.09
2023-03-20T08:48:59.483Z,54.44
2023-03-20T08:51:29.039Z,54.32
2023-03-20T08:53:59.361Z,54.38
2023-03-20T08:56:29.540Z,54.41
2023-03-20T08:59:03.022Z,54.39
2023-03-20T09:01:48.390Z,54.45
2023-03-20T09:04:20.387Z,54.43
2023-03-20T09:06:52.303Z,54.38
2023-03-20T09:09:27.535Z,54.47
2023-03-20T09:11:58.787Z,54.81
2023-03-20T09:14:29.725Z,54.86
2023-03-20T09:16:59.489Z,55.17
2023-03-20T09:19:31.966Z,55.09
2023-03-20T09:22:01.759Z,55.01
2023-03-20T09:24:33.676Z,54.96
2023-03-20T09:27:03.828Z,54.73
2023-03-20T09:29:35.208Z,54.88
2023-03-20T09:32:07.662Z,54.92
2023-03-20T09:34:37.507Z,54.92
2023-03-20T09:37:08.310Z,55.02
2023-03-20T09:39:37.545Z,55.28
2023-03-20T09:42:54.675Z,55.33
2023-03-20T09:45:56.785Z,55.35
2023-03-20T09:48:54.387Z,55.44
2023-03-20T09:51:52.142Z,55.65
2023-03-20T09:54:54.500Z,55.65
2023-03-20T09:57:28.850Z,55.59
2023-03-20T10:00:03.385Z,55.52
2023-03-20T10:02:57.667Z,55.69
2023-03-20T10:05:28.645Z,55.80
2023-03-20T10:08:02.526Z,55.98
2023-03-20T10:10:58.732Z,55.90
2023-03-20T10:13:38.535Z,56.08
2023-03-20T10:16:53.851Z,56.12
2023-03-20T10:19:30.432Z,56.21
2023-03-20T10:22:12.322Z,56.01
2023-03-20T10:24:53.220Z,56.26
2023-03-20T10:27:42.772Z,56.31
2023-03-20T10:30:17.029Z,55.92
2023-03-20T10:33:27.379Z,55.96
2023-03-20T10:36:25.908Z,56.10
2023-03-20T10:39:03.207Z,56.21
2023-03-20T10:41:37.869Z,56.12
2023-03-20T10:44:16.920Z,55.99
2023-03-20T10:46:53.468Z,55.88
2023-03-20T10:49:52.733Z,55.94
2023-03-20T10:52:40.891Z,56.04
2023-03-20T10:55:27.430Z,55.83
2023-03-20T10:58:06.553Z,55.51
2023-03-20T11:00:36.040Z,55.15
2023-03-20T11:03:09.400Z,55.21
2023-03-20T11:05:38.900Z,54.97
2023-03-20T11:08:16.049Z,54.81
2023-03-20T11:10:45.642Z,54.58
2023-03-20T11:13:37.775Z,54.43
2023-03-20T11:16:24.902Z,54.64
2023-03-20T11:18:56.508Z,54.55
2023-03-20T11:21:30.320Z,54.59
2023-03-20T11:24:20.193Z,54.66
2023-03-20T11:26:49.512Z,54.98
2023-03-20T11:29:33.532Z,55.15
2023-03-20T11:32:16.620Z,55.25
2023-03-20T11:34:46.839Z,55.56
2023-03-20T11:37:37.071Z,55.78
2023-03-20T11:40:12.092Z,56.09
2023-03-20T11:42:54.647Z,56.29
2023-03-20T11:45:24.444Z,56.75
2023-03-20T11:47:57.418Z,57.03
2023-03-20T11:50:34.587Z,57.24
2023-03-20T11:53:18.277Z,57.43
2023-03-20T11:56:00.861Z,57.63
2023-03-20T11:58:30.568Z,57.92
2023-03-20T12:01:05.389Z,57.95
2023-03-20T12:03:45.666Z,58.12
2023-03-20T12:06:22.330Z,58.35
2023-03-20T12:09:03.980Z,57.98
2023-03-20T12:11:44.582Z,58.11
2023-03-20T12:14:26.042Z,58.24
2023-03-20T12:17:28.610Z,58.22
2023-03-20T12:20:04.106Z,58.42
2023-03-20T12:22:40.545Z,58.40
2023-03-20T12:25:48.178Z,58.51
2023-03-20T12:28:33.768Z,58.51
2023-03-20T12:31:26.854Z,58.74
2023-03-20T12:34:17.498Z,58.72
2023-03-20T12:36:50.234Z,58.67
2023-03-20T12:39:26.198Z,58.80
2023-03-20T12:42:28.883Z,58.93
2023-03-20T12:45:15.742Z,59.28
2023-03-20T12:48:17.306Z,59.43
2023-03-20T12:51:02.868Z,59.64
2023-03-20T12:54:14.506Z,59.87
2023-03-20T12:56:54.127Z,60.04
2023-03-20T12:59:48.675Z,59.94
2023-03-20T13:02:34.000Z,59.82
2023-03-20T13:05:27.974Z,59.97
2023-03-20T13:08:11.469Z,60.09
2023-03-20T13:10:50.887Z,60.19
2023-03-20T13:13:48.605Z,60.14
2023-03-20T13:17:03.415Z,60.57
2023-03-20T13:19:55.467Z,60.67
2023-03-20T13:22:55.333Z,60.67
2023-03-20T13:25:48.772Z,60.60
2023-03-20T13:28:50.206Z,60.42
2023-03-20T13:31:58.957Z,60.22
2023-03-20T13:34:40.570Z,60.76
2023-03-20T13:37:26.186Z,60.51
2023-03-20T13:40:36.251Z,60.40
2023-03-20T13:43:45.346Z,60.11
2023-03-20T13:46:39.046Z,60.26
2023-03-20T13:49:39.944Z,60.33
2023-03-20T13:52:14.974Z,60.49
2023-03-20T13:54:59.353Z,60.45
2023-03-20T13:58:07.548Z,60.41
2023-03-20T14:01:02.531Z,60.46
2023-03-20T14:03:38.114Z,60.58
2023-03-20T14:06:32.048Z,60.86
2023-03-20T14:09:03.792Z,61.03
2023-03-20T14:11:38.359Z,61.02
2023-03-20T14:14:28.468Z,60.41
2023-03-20T14:17:34.198Z,60.06
2023-03-20T14:20:24.914Z,60.11
2023-03-20T14:22:58.017Z,60.24
2023-03-20T14:25:34.365Z,60.11
2023-03-20T14:28:13.194Z,60.29
2023-03-20T14:30:46.403Z,60.42
2023-03-20T14:33:15.472Z,60.59
2023-03-20T14:36:18.697Z,60.94
2023-03-20T14:39:05.296Z,60.98
2023-03-20T14:41:50.875Z,60.62
2023-03-20T14:44:46.544Z,60.66
2023-03-20T14:47:58.068Z,60.65
2023-03-20T14:50:42.948Z,60.25
2023-03-20T14:53:23.237Z,60.15
2023-03-20T14:56:10.845Z,60.29
2023-03-20T14:58:54.107Z,60.56
2023-03-20T15:01:23.588Z,60.58
2023-03-20T15:04:34.486Z,60.44
2023-03-20T15:10:30.492Z,60.30
2023-03-20T15:16:18.547Z,60.14
2023-03-20T15:18:58.001Z,60.22
2023-03-20T15:21:40.211Z,60.35
2023-03-20T15:24:43.277Z,60.48
2023-03-20T15:27:25.840Z,60.66
2023-03-20T15:30:15.770Z,60.86
2023-03-20T15:33:08.261Z,61.10
2023-03-20T15:35:53.431Z,61.02
2023-03-20T15:38:43.236Z,61.02
2023-03-20T15:41:35.514Z,61.25
2023-03-20T15:44:19.826Z,61.38
2023-03-20T15:47:08.715Z,61.30
2023-03-20T15:49:43.463Z,61.57
2023-03-20T15:52:23.740Z,61.47
2023-03-20T15:54:57.556Z,61.61
2023-03-20T15:57:35.760Z,61.79
2023-03-20T16:00:25.534Z,61.83
2023-03-20T16:02:55.738Z,61.88
2023-03-20T16:05:31.825Z,61.84
2023-03-20T16:08:26.642Z,61.97
2023-03-20T16:11:00.319Z,62.07
2023-03-20T16:14:47.028Z,62.36
2023-03-20T16:17:19.373Z,62.46
2023-03-20T16:19:52.966Z,62.60
2023-03-20T16:22:34.185Z,62.64
2023-03-20T16:25:05.659Z,62.63
2023-03-20T16:27:37.082Z,62.66
2023-03-20T16:30:10.442Z,62.76
2023-03-20T16:32:44.668Z,62.77
2023-03-20T16:35:29.843Z,62.97
2023-03-20T16:38:03.251Z,62.98
2023-03-20T16:40:39.781Z,63.10
2023-03-20T16:43:20.978Z,63.22
2023-03-20T16:45:56.654Z,63.62
2023-03-20T16:48:28.524Z,63.34
2023-03-20T16:51:30.920Z,63.55
2023-03-20T16:54:05.592Z,63.61
2023-03-20T16:56:37.914Z,63.76
2023-03-20T16:59:17.891Z,63.88
2023-03-20T17:01:50.411Z,64.06
2023-03-20T17:04:29.466Z,63.98
2023-03-20T17:07:06.855Z,64.26
2023-03-20T17:09:52.567Z,64.21
2023-03-20T17:12:26.925Z,64.38
2023-03-20T17:15:01.628Z,64.36
2023-03-20T17:17:32.256Z,64.68
2023-03-20T17:20:04.682Z,64.17
2023-03-20T17:22:35.050Z,63.67
2023-03-20T17:25:07.107Z,63.71
2023-03-20T17:27:38.358Z,63.77
2023-03-20T17:30:21.545Z,63.87
2023-03-20T17:32:52.748Z,63.87
2023-03-20T17:35:24.199Z,63.80
2023-03-20T17:37:53.812Z,64.01
2023-03-20T17:40:26.793Z,64.36
2023-03-20T17:42:58.878Z,64.25
2023-03-20T17:45:31.406Z,64.27
2023-03-20T17:48:02.375Z,64.25
2023-03-20T17:50:33.126Z,64.64
2023-03-20T17:53:05.289Z,64.92
2023-03-20T17:55:37.977Z,65.17
2023-03-20T17:58:16.947Z,65.54
2023-03-20T18:00:47.699Z,66.08
2023-03-20T18:03:19.443Z,66.39
2023-03-20T18:05:51.417Z,66.11
2023-03-20T18:08:25.456Z,65.97
2023-03-20T18:10:58.811Z,65.81
2023-03-20T18:13:30.466Z,65.76
2023-03-20T18:16:05.344Z,65.65
2023-03-20T18:18:48.680Z,65.52
2023-03-20T18:21:23.605Z,65.37
2023-03-20T18:23:58.552Z,65.39
2023-03-20T18:26:32.416Z,65.45
2023-03-20T18:29:02.651Z,65.28
2023-03-20T18:31:37.112Z,65.19
2023-03-20T18:34:10.770Z,65.24
2023-03-20T18:36:41.489Z,65.13
2023-03-20T18:39:28.634Z,65.30
2023-03-20T18:42:00.529Z,65.23
2023-03-20T18:44:34.980Z,65.07
2023-03-20T18:47:06.779Z,65.19
2023-03-20T18:49:39.748Z,64.89
2023-03-20T18:52:15.262Z,64.87
2023-03-20T18:54:46.200Z,65.05
2023-03-20T18:57:20.583Z,65.25
2023-03-20T18:59:52.593Z,65.28
2023-03-20T19:02:27.774Z,65.21
2023-03-20T19:04:59.549Z,65.26
2023-03-20T19:07:34.600Z,65.28
2023-03-20T19:10:09.341Z,65.35
2023-03-20T19:12:40.452Z,65.27
2023-03-20T19:15:14.790Z,65.32
2023-03-20T19:17:48.292Z,65.48
2023-03-20T19:20:40.090Z,65.54
2023-03-20T19:23:15.656Z,65.60
2023-03-20T19:25:53.103Z,65.56
2023-03-20T19:28:39.238Z,65.87
2023-03-20T19:31:11.605Z,65.91
2023-03-20T19:33:47.133Z,66.05
2023-03-20T19:36:36.325Z,66.18
2023-03-20T19:39:18.340Z,66.18
2023-03-20T19:41:52.878Z,66.32
2023-03-20T19:44:27.408Z,66.32
2023-03-20T19:46:59.412Z,66.15
2023-03-20T19:49:33.976Z,66.31
2023-03-20T19:52:08.126Z,66.25
2023-03-20T19:54:52.796Z,66.05
2023-03-20T19:57:35.158Z,66.28
2023-03-20T20:03:03.032Z,66.59
2023-03-20T20:05:38.777Z,66.55
2023-03-20T20:08:25.972Z,66.46
2023-03-20T20:11:07.627Z,66.66
2023-03-20T20:14:05.296Z,66.56
2023-03-20T20:16:44.092Z,66.64
2023-03-20T20:19:22.391Z,66.53
2023-03-20T20:22:20.020Z,66.54
2023-03-20T20:24:50.267Z,66.63
2023-03-20T20:27:24.001Z,66.62
2023-03-20T20:29:56.805Z,66.61
2023-03-20T20:32:30.849Z,66.71
2023-03-20T20:40:50.563Z,66.82
2023-03-20T20:43:50.695Z,66.72
2023-03-20T20:46:15.730Z,66.96
2023-03-20T20:48:47.316Z,67.04
2023-03-20T20:51:21.236Z,66.91
2023-03-20T20:53:54.495Z,66.84
2023-03-20T20:56:26.284Z,67.23
2023-03-20T20:58:59.142Z,67.30
2023-03-20T21:01:32.442Z,67.30
2023-03-20T21:04:04.827Z,67.29
2023-03-20T21:07:06.279Z,67.20
2023-03-20T21:09:30.664Z,67.33
2023-03-20T21:12:05.374Z,67.30
2023-03-20T21:14:38.714Z,67.11
2023-03-20T21:17:14.292Z,67.56
2023-03-20T21:19:45.664Z,67.73
2023-03-20T21:22:18.119Z,67.42
2023-03-20T21:25:00.801Z,67.32
2023-03-20T21:27:40.858Z,67.40
2023-03-20T21:30:12.095Z,67.29
2023-03-20T21:32:44.052Z,67.52
2023-03-20T21:35:21.177Z,67.75
2023-03-20T21:40:44.877Z,67.75
2023-03-20T21:43:19.198Z,68.04
2023-03-20T21:49:31.418Z,68.06
2023-03-20T21:52:30.612Z,68.02
2023-03-20T21:55:00.802Z,68.08
2023-03-20T22:00:57.429Z,68.31
2023-03-20T22:02:57.062Z,68.40
2023-03-20T22:06:02.420Z,68.50
2023-03-20T22:12:02.446Z,68.57
2023-03-20T22:14:58.429Z,68.79
2023-03-20T22:23:30.939Z,69.63
2023-03-20T22:26:08.208Z,69.55
2023-03-20T22:44:24.472Z,70.13
2023-03-20T22:46:07.682Z,70.20
2023-03-20T22:48:43.642Z,70.45
2023-03-20T22:54:19.313Z,69.87
2023-03-20T22:56:50.285Z,69.44
2023-03-20T22:59:20.918Z,69.23
2023-03-20T23:01:52.025Z,69.24
2023-03-20T23:04:22.986Z,69.09
2023-03-20T23:06:54.545Z,69.06
2023-03-20T23:09:23.602Z,69.04
2023-03-20T23:11:52.687Z,69.19
2023-03-20T23:15:12.896Z,69.05
2023-03-20T23:17:46.273Z,69.05
2023-03-20T23:20:20.323Z,69.00
2023-03-20T23:22:51.859Z,69.04
2023-03-20T23:25:36.363Z,68.98
2023-03-20T23:28:11.383Z,68.73
2023-03-20T23:30:51.861Z,68.96
2023-03-20T23:33:27.029Z,68.66
2023-03-20T23:36:08.601Z,68.68
2023-03-20T23:38:44.339Z,68.91
2023-03-20T23:41:15.418Z,68.73
2023-03-20T23:43:48.358Z,68.68
2023-03-20T23:46:18.510Z,68.64
2023-03-20T23:48:48.271Z,68.66
2023-03-20T23:51:17.300Z,68.75
2023-03-20T23:53:47.591Z,68.82
2023-03-20T23:56:21.346Z,68.93
2023-03-20T23:58:59.457Z,68.69
